Athens, Maine
Current Conditions -  °F | °C
As of 8:15 PM on Monday 20 Oct 2014 (Local Time) from KWVL Reporting Station
Scattered Clouds Scattered Clouds  
Wind Chill: 43°   Ceiling: Unl
Heat Index: 43°   Visibility: 10mi
Dew Point: 27°   Wind: 0mph
Humidity: 53%   Direction: NA
Pressure: 29.93"   Gusts: NA
Location:  44.92°N, 69.67°W
Report Text: KWVL 210015Z 00000KT 10SM FEW095 SCT120 06/M03 A2993 RMK AO1
Loading
Personal Weather Stations






























Interactive Weather Map
Tropical Storm Tracking
New forecast layout! Learn more

10-Day Weather Forecast

Advertisements
Track Severe Weather on mobile